createdAt,value
2019-03-16T00:00:24.078Z,39.81
2019-03-16T00:00:49.858Z,39.82
2019-03-16T00:01:15.836Z,39.82
2019-03-16T00:01:41.907Z,39.81
2019-03-16T00:02:07.840Z,39.69
2019-03-16T00:02:33.849Z,39.8
2019-03-16T00:02:59.831Z,39.81
2019-03-16T00:03:25.836Z,39.82
2019-03-16T00:03:51.837Z,39.81
2019-03-16T00:04:17.851Z,39.83
2019-03-16T00:04:43.911Z,39.89
2019-03-16T00:05:09.852Z,40
2019-03-16T00:05:35.837Z,39.92
2019-03-16T00:06:01.856Z,39.85
2019-03-16T00:06:27.835Z,39.93
2019-03-16T00:06:53.850Z,39.93
2019-03-16T00:07:19.840Z,39.81
2019-03-16T00:07:45.836Z,39.78
2019-03-16T00:08:11.860Z,39.84
2019-03-16T00:08:37.843Z,39.8
2019-03-16T00:09:03.855Z,39.78
2019-03-16T00:09:29.841Z,39.8
2019-03-16T00:09:55.845Z,39.81
2019-03-16T00:10:21.860Z,39.79
2019-03-16T00:10:47.908Z,39.85
2019-03-16T00:11:13.855Z,39.82
2019-03-16T00:11:39.859Z,39.75
2019-03-16T00:12:05.843Z,39.79
2019-03-16T00:12:31.856Z,39.79
2019-03-16T00:12:57.849Z,39.81
2019-03-16T00:13:23.986Z,39.72
2019-03-16T00:13:49.847Z,39.74
2019-03-16T00:14:15.851Z,39.83
2019-03-16T00:14:41.866Z,39.72
2019-03-16T00:15:07.866Z,39.79
2019-03-16T00:15:33.862Z,39.79
2019-03-16T00:15:59.863Z,39.75
2019-03-16T00:16:25.848Z,39.74
2019-03-16T00:16:51.853Z,39.7
2019-03-16T00:17:17.890Z,39.81
2019-03-16T00:17:43.872Z,39.81
2019-03-16T00:18:09.866Z,39.82
2019-03-16T00:18:35.850Z,39.86
2019-03-16T00:19:01.872Z,39.88
2019-03-16T00:19:27.850Z,39.97
2019-03-16T00:19:53.874Z,39.95
2019-03-16T00:20:19.859Z,39.93
2019-03-16T00:20:45.855Z,40.06
2019-03-16T00:21:11.871Z,40
2019-03-16T00:21:37.859Z,40.04
2019-03-16T00:22:03.874Z,39.97
2019-03-16T00:22:29.861Z,39.98
2019-03-16T00:22:55.875Z,39.98
2019-03-16T00:23:21.876Z,39.97
2019-03-16T00:23:47.885Z,39.95
2019-03-16T00:24:13.941Z,39.96
2019-03-16T00:24:39.877Z,39.91
2019-03-16T00:25:05.861Z,39.86
2019-03-16T00:25:31.877Z,39.9
2019-03-16T00:25:57.863Z,39.92
2019-03-16T00:26:23.884Z,39.9
2019-03-16T00:26:49.867Z,39.93
2019-03-16T00:27:15.869Z,39.93
2019-03-16T00:27:41.882Z,39.96
2019-03-16T00:28:07.883Z,39.98
2019-03-16T00:28:33.883Z,39.99
2019-03-16T00:28:59.890Z,39.98
2019-03-16T00:29:25.865Z,39.98
2019-03-16T00:29:51.891Z,39.98
2019-03-16T00:30:17.872Z,40.01
2019-03-16T00:30:43.887Z,39.98
2019-03-16T00:31:09.949Z,39.99
2019-03-16T00:31:35.871Z,39.95
2019-03-16T00:32:01.890Z,39.94
2019-03-16T00:32:27.875Z,39.94
2019-03-16T00:32:53.887Z,39.94
2019-03-16T00:33:19.873Z,39.9
2019-03-16T00:33:45.881Z,39.93
2019-03-16T00:34:11.890Z,39.96
2019-03-16T00:34:37.956Z,40.01
2019-03-16T00:35:03.955Z,39.99
2019-03-16T00:35:29.891Z,39.99
2019-03-16T00:35:55.878Z,39.96
2019-03-16T00:36:21.896Z,39.95
2019-03-16T00:36:47.883Z,39.94
2019-03-16T00:37:13.884Z,39.96
2019-03-16T00:37:39.888Z,39.95
2019-03-16T00:38:05.952Z,39.97
2019-03-16T00:38:31.912Z,39.97
2019-03-16T00:38:57.882Z,39.95
2019-03-16T00:39:23.896Z,39.96
2019-03-16T00:39:49.878Z,39.97
2019-03-16T00:40:15.883Z,39.96
2019-03-16T00:40:41.903Z,39.96
2019-03-16T00:41:07.970Z,39.96
2019-03-16T00:41:33.902Z,40.02
2019-03-16T00:41:59.903Z,40.03
2019-03-16T00:42:25.887Z,40.06
2019-03-16T00:42:51.906Z,40.03
2019-03-16T00:43:17.906Z,40.02
2019-03-16T00:43:43.907Z,40.02
2019-03-16T00:44:09.886Z,40.01
2019-03-16T00:44:35.902Z,40.01
2019-03-16T00:45:01.907Z,40.02
2019-03-16T00:45:27.971Z,40.02
2019-03-16T00:45:53.908Z,40.02
2019-03-16T00:46:19.948Z,40.02
2019-03-16T00:46:45.893Z,40.02
2019-03-16T00:47:11.893Z,40.04
2019-03-16T00:47:37.895Z,40.04
2019-03-16T00:48:03.908Z,40.06
2019-03-16T00:48:29.976Z,40.06
2019-03-16T00:48:55.895Z,40.04
2019-03-16T00:49:21.912Z,40.08
2019-03-16T00:49:47.900Z,40.06
2019-03-16T00:50:13.923Z,40.04
2019-03-16T00:50:39.901Z,40.05
2019-03-16T00:51:05.904Z,40.07
2019-03-16T00:51:31.902Z,40.07
2019-03-16T00:51:57.918Z,40.09
2019-03-16T00:52:23.985Z,40.08
2019-03-16T00:52:49.921Z,40.08
2019-03-16T00:53:15.909Z,40.09
2019-03-16T00:53:41.922Z,40.07
2019-03-16T00:54:07.902Z,40.09
2019-03-16T00:54:34.082Z,40.08
2019-03-16T00:55:00.002Z,40.07
2019-03-16T00:55:25.986Z,40.06
2019-03-16T00:55:51.919Z,40.08
2019-03-16T00:56:17.905Z,40.08
2019-03-16T00:56:43.920Z,40.11
2019-03-16T00:57:09.914Z,40.11
2019-03-16T00:57:35.915Z,40.12
2019-03-16T00:58:02.069Z,40.1
2019-03-16T00:58:27.925Z,40.09
2019-03-16T00:58:53.939Z,40.08
2019-03-16T00:59:19.991Z,40.05
2019-03-16T00:59:45.912Z,40.07
2019-03-16T01:00:11.923Z,40.08
2019-03-16T01:00:37.914Z,40.1
2019-03-16T01:01:03.928Z,40.06
2019-03-16T01:01:29.913Z,40.04
2019-03-16T01:01:55.913Z,40.03
2019-03-16T01:02:21.938Z,40.05
2019-03-16T01:02:47.932Z,40.1
2019-03-16T01:03:13.929Z,40.07
2019-03-16T01:03:39.916Z,40.09
2019-03-16T01:04:05.917Z,40.07
2019-03-16T01:04:31.917Z,40.04
2019-03-16T01:04:57.929Z,40.02
2019-03-16T01:05:23.999Z,39.94
2019-03-16T01:05:49.934Z,40
2019-03-16T01:06:15.921Z,39.93
2019-03-16T01:06:41.941Z,39.91
2019-03-16T01:07:07.926Z,39.93
2019-03-16T01:07:33.938Z,39.9
2019-03-16T01:07:59.922Z,39.92
2019-03-16T01:08:25.933Z,39.87
2019-03-16T01:08:52.006Z,39.83
2019-03-16T01:09:17.942Z,39.85
2019-03-16T01:09:43.942Z,39.85
2019-03-16T01:10:09.941Z,39.84
2019-03-16T01:10:35.927Z,39.79
2019-03-16T01:11:01.942Z,39.77
2019-03-16T01:11:27.929Z,39.75
2019-03-16T01:11:53.936Z,39.72
2019-03-16T01:12:19.944Z,39.64
2019-03-16T01:12:45.929Z,39.7
2019-03-16T01:13:11.948Z,39.71
2019-03-16T01:13:37.932Z,39.71
2019-03-16T01:14:03.944Z,39.68
2019-03-16T01:14:29.933Z,39.64
2019-03-16T01:14:55.936Z,39.63
2019-03-16T01:15:21.935Z,39.63
2019-03-16T01:15:47.936Z,39.7
2019-03-16T01:16:13.946Z,39.68
2019-03-16T01:16:40.018Z,39.65
2019-03-16T01:17:05.934Z,39.66
2019-03-16T01:17:31.950Z,39.63
2019-03-16T01:17:57.937Z,39.65
2019-03-16T01:18:23.952Z,39.56
2019-03-16T01:18:49.938Z,39.53
2019-03-16T01:19:15.938Z,39.58
2019-03-16T01:19:41.953Z,39.54
2019-03-16T01:20:07.955Z,39.54
2019-03-16T01:20:33.955Z,39.55
2019-03-16T01:20:59.962Z,39.59
2019-03-16T01:21:25.940Z,39.58
2019-03-16T01:21:51.940Z,39.58
2019-03-16T01:22:17.948Z,39.59
2019-03-16T01:22:43.959Z,39.52
2019-03-16T01:23:10.023Z,39.53
2019-03-16T01:23:35.943Z,39.52
2019-03-16T01:24:01.962Z,39.46
2019-03-16T01:24:27.951Z,39.45
2019-03-16T01:24:53.963Z,39.47
2019-03-16T01:25:20.074Z,39.45
2019-03-16T01:25:45.964Z,39.48
2019-03-16T01:26:11.964Z,39.47
2019-03-16T01:26:37.965Z,39.42
2019-03-16T01:27:03.968Z,39.45
2019-03-16T01:27:29.968Z,39.44
2019-03-16T01:27:55.951Z,39.38
2019-03-16T01:28:21.970Z,39.39
2019-03-16T01:28:47.953Z,39.44
2019-03-16T01:29:13.957Z,39.4
2019-03-16T01:29:39.963Z,39.37
2019-03-16T01:30:06.018Z,39.43
2019-03-16T01:30:31.976Z,39.42
2019-03-16T01:30:57.953Z,39.44
2019-03-16T01:31:23.971Z,39.45
2019-03-16T01:31:49.957Z,39.44
2019-03-16T01:32:15.961Z,39.39
2019-03-16T01:32:41.958Z,39.38
2019-03-16T01:33:07.972Z,39.45
2019-03-16T01:33:33.976Z,39.41
2019-03-16T01:34:00.044Z,39.45
2019-03-16T01:34:25.995Z,39.6
2019-03-16T01:34:51.977Z,39.71
2019-03-16T01:35:17.962Z,39.69
2019-03-16T01:35:43.977Z,39.74
2019-03-16T01:36:09.963Z,39.67
2019-03-16T01:36:35.959Z,39.72
2019-03-16T01:37:02.072Z,39.7
2019-03-16T01:37:28.044Z,39.66
2019-03-16T01:37:53.982Z,39.65
2019-03-16T01:38:19.988Z,39.64
2019-03-16T01:38:45.970Z,39.68
2019-03-16T01:39:11.983Z,39.68
2019-03-16T01:39:37.967Z,39.71
2019-03-16T01:40:03.969Z,39.69
2019-03-16T01:40:29.987Z,39.67
2019-03-16T01:40:55.970Z,39.71
2019-03-16T01:41:21.986Z,39.72
2019-03-16T01:41:47.969Z,39.72
2019-03-16T01:42:13.986Z,39.7
2019-03-16T01:42:39.971Z,39.69
2019-03-16T01:43:05.972Z,39.73
2019-03-16T01:43:31.985Z,39.74
2019-03-16T01:43:58.054Z,39.73
2019-03-16T01:44:24.013Z,39.69
2019-03-16T01:44:50.064Z,39.72
2019-03-16T01:45:16.011Z,39.74
2019-03-16T01:45:42.001Z,39.78
2019-03-16T01:46:07.975Z,39.81
2019-03-16T01:46:33.994Z,39.82
2019-03-16T01:46:59.986Z,39.76
2019-03-16T01:47:25.986Z,39.79
2019-03-16T01:47:52.007Z,39.8
2019-03-16T01:48:17.995Z,39.81
2019-03-16T01:48:43.995Z,39.83
2019-03-16T01:49:09.999Z,39.88
2019-03-16T01:49:35.982Z,39.87
2019-03-16T01:50:01.984Z,39.85
2019-03-16T01:50:27.987Z,39.83
2019-03-16T01:50:53.991Z,39.84
2019-03-16T01:51:20.001Z,39.84
2019-03-16T01:51:45.987Z,39.83
2019-03-16T01:52:12.014Z,39.87
2019-03-16T01:52:37.987Z,39.87
2019-03-16T01:53:04.007Z,39.86
2019-03-16T01:53:29.991Z,39.89
2019-03-16T01:53:55.988Z,39.88
2019-03-16T01:54:22.010Z,39.88
2019-03-16T01:54:48.007Z,39.91
2019-03-16T01:55:14.004Z,39.95
2019-03-16T01:55:39.988Z,39.94
2019-03-16T01:56:05.994Z,39.96
2019-03-16T01:56:31.994Z,39.97
2019-03-16T01:56:58.004Z,39.99
2019-03-16T01:57:24.073Z,40.02
2019-03-16T01:57:50.013Z,40
2019-03-16T01:58:15.997Z,40.03
2019-03-16T01:58:42.011Z,40.06
2019-03-16T01:59:08.000Z,40.1
2019-03-16T01:59:34.018Z,40.06
2019-03-16T01:59:59.996Z,40.04
2019-03-16T02:00:26.012Z,40.02
2019-03-16T02:00:52.075Z,40.07
2019-03-16T02:01:18.015Z,40.11
2019-03-16T02:01:44.013Z,40.11
2019-03-16T02:02:10.018Z,40.12
2019-03-16T02:02:36.003Z,40.11
2019-03-16T02:03:02.003Z,40.11
2019-03-16T02:03:28.008Z,40.11
2019-03-16T02:03:54.012Z,40.13
2019-03-16T02:04:20.082Z,40.15
2019-03-16T02:04:46.011Z,40.15
2019-03-16T02:05:12.018Z,40.15
2019-03-16T02:05:38.011Z,40.16
2019-03-16T02:06:04.049Z,40.16
2019-03-16T02:06:30.018Z,40.15
2019-03-16T02:06:56.078Z,40.13
2019-03-16T02:07:22.025Z,40.18
2019-03-16T02:07:48.026Z,40.22
2019-03-16T02:08:14.025Z,40.23
2019-03-16T02:08:40.017Z,40.22
2019-03-16T02:09:06.022Z,40.22
2019-03-16T02:09:32.085Z,40.28
2019-03-16T02:09:58.029Z,40.29
2019-03-16T02:10:24.029Z,40.31
2019-03-16T02:10:50.025Z,40.33
2019-03-16T02:11:16.016Z,40.34
2019-03-16T02:11:42.019Z,40.34
2019-03-16T02:12:08.225Z,40.35
2019-03-16T02:12:34.033Z,40.37
2019-03-16T02:13:00.030Z,40.37
2019-03-16T02:13:26.020Z,40.38
2019-03-16T02:13:52.032Z,40.39
2019-03-16T02:14:18.017Z,40.39
2019-03-16T02:14:44.035Z,40.4
2019-03-16T02:15:10.021Z,40.42
2019-03-16T02:15:36.028Z,40.44
2019-03-16T02:16:02.037Z,40.48
2019-03-16T02:16:28.100Z,40.48
2019-03-16T02:16:54.038Z,40.52
2019-03-16T02:17:20.039Z,40.56
2019-03-16T02:17:46.025Z,40.71
2019-03-16T02:18:12.027Z,40.59
2019-03-16T02:18:38.020Z,40.58
2019-03-16T02:19:04.030Z,40.6
2019-03-16T02:19:30.039Z,40.57
2019-03-16T02:19:56.026Z,40.63
2019-03-16T02:20:22.042Z,40.69
2019-03-16T02:21:14.043Z,40.68
2019-03-16T02:21:40.026Z,40.67
2019-03-16T02:22:06.022Z,40.74
2019-03-16T02:22:32.024Z,40.77
2019-03-16T02:22:58.022Z,40.74
2019-03-16T02:23:24.038Z,40.74
2019-03-16T02:23:50.046Z,40.79
2019-03-16T02:24:16.096Z,40.79
2019-03-16T02:24:42.042Z,40.8
2019-03-16T02:25:08.043Z,40.97
2019-03-16T02:25:34.044Z,40.89
2019-03-16T02:26:00.029Z,40.92
2019-03-16T02:26:26.030Z,40.89
2019-03-16T02:26:52.043Z,40.89
2019-03-16T02:27:18.048Z,40.91
2019-03-16T02:27:44.045Z,40.98
2019-03-16T02:28:10.061Z,40.95
2019-03-16T02:28:36.036Z,40.99
2019-03-16T02:29:02.048Z,41
2019-03-16T02:29:28.036Z,40.95
2019-03-16T02:29:54.036Z,40.98
2019-03-16T02:30:20.045Z,41.02
2019-03-16T02:30:46.041Z,41.02
2019-03-16T02:31:12.116Z,41.04
2019-03-16T02:31:38.054Z,41.02
2019-03-16T02:32:04.381Z,41.03
2019-03-16T02:32:30.045Z,41.01
2019-03-16T02:32:56.039Z,41.01
2019-03-16T02:33:22.042Z,41.08
2019-03-16T02:33:48.041Z,41.08
2019-03-16T02:34:14.047Z,41.1
2019-03-16T02:34:40.062Z,41.07
2019-03-16T02:35:06.107Z,41.08
2019-03-16T02:35:32.062Z,41.08
2019-03-16T02:35:58.044Z,41.11
2019-03-16T02:36:24.061Z,41.1
2019-03-16T02:36:50.045Z,41.13
2019-03-16T02:37:16.054Z,41.18
2019-03-16T02:37:42.125Z,41.19
2019-03-16T02:38:08.082Z,41.15
2019-03-16T02:38:34.063Z,41.14
2019-03-16T02:39:00.049Z,41.15
2019-03-16T02:39:26.049Z,41.13
2019-03-16T02:39:52.052Z,41.12
2019-03-16T02:40:18.052Z,41.1
2019-03-16T02:40:44.056Z,41.14
2019-03-16T02:41:10.069Z,41.16
2019-03-16T02:41:36.052Z,41.16
2019-03-16T02:42:02.068Z,41.19
2019-03-16T02:42:28.052Z,41.2
2019-03-16T02:42:54.069Z,41.2
2019-03-16T02:43:20.052Z,41.23
2019-03-16T02:43:46.057Z,41.26
2019-03-16T02:44:12.056Z,41.28
2019-03-16T02:44:38.062Z,41.27
2019-03-16T02:45:04.136Z,41.28
2019-03-16T02:45:30.076Z,41.32
2019-03-16T02:45:56.063Z,41.3
2019-03-16T02:46:22.074Z,41.34
2019-03-16T02:46:48.056Z,41.34
2019-03-16T02:47:14.075Z,41.34
2019-03-16T02:47:40.070Z,41.32
2019-03-16T02:48:06.129Z,41.33
2019-03-16T02:48:32.352Z,41.36
2019-03-16T02:48:58.063Z,41.37
2019-03-16T02:49:24.092Z,41.41
2019-03-16T02:49:50.068Z,41.37
2019-03-16T02:50:16.066Z,41.4
2019-03-16T02:50:42.075Z,41.41
2019-03-16T02:51:08.081Z,41.4
2019-03-16T02:51:34.080Z,41.41
2019-03-16T02:52:00.082Z,41.43
2019-03-16T02:52:26.068Z,41.42
2019-03-16T02:52:52.080Z,41.41
2019-03-16T02:53:18.070Z,41.4
2019-03-16T02:53:44.070Z,41.44
2019-03-16T02:54:10.088Z,41.47
2019-03-16T02:54:36.136Z,41.55
2019-03-16T02:55:02.088Z,41.54
2019-03-16T02:55:28.075Z,41.54
2019-03-16T02:55:54.087Z,41.54
2019-03-16T02:56:20.076Z,41.56
2019-03-16T02:56:46.073Z,41.62
2019-03-16T02:57:12.088Z,41.61
2019-03-16T02:57:38.156Z,41.61
2019-03-16T02:58:04.155Z,41.6
2019-03-16T02:58:30.095Z,41.62
2019-03-16T02:58:56.079Z,41.58
2019-03-16T02:59:22.096Z,41.59
2019-03-16T02:59:48.084Z,41.61
2019-03-16T03:00:14.096Z,41.57
2019-03-16T03:00:40.089Z,41.64
2019-03-16T03:01:06.143Z,41.65
2019-03-16T03:01:32.098Z,41.73
2019-03-16T03:01:58.080Z,41.72
2019-03-16T03:02:24.096Z,41.72
2019-03-16T03:02:50.084Z,41.73
2019-03-16T03:03:16.095Z,41.72
2019-03-16T03:03:42.089Z,41.72
2019-03-16T03:04:08.102Z,41.7
2019-03-16T03:04:34.103Z,41.72
2019-03-16T03:05:00.102Z,41.73
2019-03-16T03:05:26.084Z,41.72
2019-03-16T03:05:52.105Z,41.75
2019-03-16T03:06:18.085Z,41.77
2019-03-16T03:06:44.102Z,41.75
2019-03-16T03:07:10.088Z,41.79
2019-03-16T03:07:36.094Z,41.79
2019-03-16T03:08:02.125Z,41.81
2019-03-16T03:08:28.169Z,41.77
2019-03-16T03:08:54.106Z,41.8
2019-03-16T03:09:20.110Z,41.86
2019-03-16T03:09:46.097Z,41.82
2019-03-16T03:10:12.094Z,41.91
2019-03-16T03:10:38.097Z,41.9
2019-03-16T03:11:04.105Z,41.91
2019-03-16T03:11:30.109Z,41.87
2019-03-16T03:11:56.097Z,41.88
2019-03-16T03:12:22.112Z,41.9
2019-03-16T03:12:48.100Z,41.96
2019-03-16T03:13:14.122Z,41.98
2019-03-16T03:13:40.100Z,42.02
2019-03-16T03:14:06.107Z,42.02
2019-03-16T03:14:32.185Z,42.1
2019-03-16T03:14:58.113Z,42.06
2019-03-16T03:15:24.117Z,42.01
2019-03-16T03:15:50.100Z,42
2019-03-16T03:16:16.102Z,42.06
2019-03-16T03:16:42.105Z,42.04
2019-03-16T03:17:08.119Z,42.02
2019-03-16T03:17:34.119Z,42.04
2019-03-16T03:18:00.123Z,42.08
2019-03-16T03:18:26.104Z,42.04
2019-03-16T03:18:52.123Z,42.06
2019-03-16T03:19:18.110Z,42.08
2019-03-16T03:19:44.108Z,42.12
2019-03-16T03:20:10.123Z,42.15
2019-03-16T03:20:36.107Z,42.15
2019-03-16T03:21:02.134Z,42.15
2019-03-16T03:21:28.109Z,42.17
2019-03-16T03:21:54.123Z,42.36
2019-03-16T03:22:20.116Z,42.28
2019-03-16T03:22:46.115Z,42.31
2019-03-16T03:23:12.117Z,42.3
2019-03-16T03:23:38.122Z,42.36
2019-03-16T03:24:04.133Z,42.4
2019-03-16T03:24:30.193Z,42.41
2019-03-16T03:24:56.116Z,42.52
2019-03-16T03:25:22.131Z,42.49
2019-03-16T03:25:48.119Z,42.48
2019-03-16T03:26:14.131Z,42.48
2019-03-16T03:26:40.113Z,42.51
2019-03-16T03:27:06.120Z,42.54
2019-03-16T03:27:32.119Z,42.51
2019-03-16T03:27:58.137Z,42.53
2019-03-16T03:28:24.138Z,42.57
2019-03-16T03:28:50.141Z,42.57
2019-03-16T03:29:16.351Z,42.58
2019-03-16T03:29:42.136Z,42.59
2019-03-16T03:30:08.130Z,42.61
2019-03-16T03:30:34.119Z,42.59
2019-03-16T03:31:00.135Z,42.63
2019-03-16T03:31:26.192Z,42.68
2019-03-16T03:31:52.140Z,42.7
2019-03-16T03:32:18.126Z,42.68
2019-03-16T03:32:44.140Z,42.72
2019-03-16T03:33:10.125Z,42.74
2019-03-16T03:33:36.133Z,42.74
2019-03-16T03:34:02.126Z,42.78
2019-03-16T03:34:28.143Z,42.82
2019-03-16T03:34:54.141Z,42.84
2019-03-16T03:35:20.146Z,42.84
2019-03-16T03:35:46.129Z,42.85
2019-03-16T03:36:12.149Z,42.88
2019-03-16T03:36:38.133Z,42.86
2019-03-16T03:37:04.259Z,42.89
2019-03-16T03:37:30.145Z,42.99
2019-03-16T03:37:56.133Z,42.97
2019-03-16T03:38:22.149Z,42.99
2019-03-16T03:38:48.137Z,42.99
2019-03-16T03:39:14.148Z,42.97
2019-03-16T03:39:40.135Z,43.14
2019-03-16T03:40:06.146Z,43.21
2019-03-16T03:40:32.156Z,43.13
2019-03-16T03:40:58.218Z,43.16
2019-03-16T03:41:24.155Z,43.16
2019-03-16T03:41:50.158Z,43.15
2019-03-16T03:42:16.138Z,43.11
2019-03-16T03:42:42.145Z,43.18
2019-03-16T03:43:08.145Z,43.17
2019-03-16T03:43:34.149Z,43.18
2019-03-16T03:44:00.216Z,43.32
2019-03-16T03:44:26.143Z,43.27
2019-03-16T03:44:52.160Z,43.27
2019-03-16T03:45:18.144Z,43.32
2019-03-16T03:45:44.161Z,43.29
2019-03-16T03:46:10.147Z,43.3
2019-03-16T03:46:36.155Z,43.33
2019-03-16T03:47:02.224Z,43.32
2019-03-16T03:47:28.164Z,43.33
2019-03-16T03:47:54.166Z,43.31
2019-03-16T03:48:20.163Z,43.3
2019-03-16T03:48:46.147Z,43.38
2019-03-16T03:49:12.148Z,43.38
2019-03-16T03:49:38.148Z,43.38
2019-03-16T03:50:04.165Z,43.39
2019-03-16T03:50:30.170Z,43.36
2019-03-16T03:50:56.152Z,43.45
2019-03-16T03:51:22.172Z,43.48
2019-03-16T03:51:48.155Z,43.53
2019-03-16T03:52:14.170Z,43.5
2019-03-16T03:52:40.158Z,43.53
2019-03-16T03:53:06.151Z,43.58
2019-03-16T03:53:32.527Z,43.61
2019-03-16T03:53:58.169Z,43.57
2019-03-16T03:54:24.172Z,43.58
2019-03-16T03:54:50.156Z,43.64
2019-03-16T03:55:16.156Z,43.61
2019-03-16T03:55:42.161Z,43.63
2019-03-16T03:56:08.178Z,43.67
2019-03-16T03:56:35.321Z,43.69
2019-03-16T03:57:00.180Z,43.72
2019-03-16T03:57:26.160Z,43.75
2019-03-16T03:57:52.181Z,43.78
2019-03-16T03:58:18.175Z,43.79
2019-03-16T03:58:44.174Z,43.76
2019-03-16T03:59:10.170Z,43.74
2019-03-16T03:59:36.234Z,43.78
2019-03-16T04:00:02.180Z,43.83
2019-03-16T04:00:28.185Z,43.8
2019-03-16T04:00:54.181Z,43.89
2019-03-16T04:01:20.180Z,43.86
2019-03-16T04:01:46.168Z,43.89
2019-03-16T04:02:12.183Z,43.87
2019-03-16T04:02:38.164Z,43.87
2019-03-16T04:03:04.171Z,43.9
2019-03-16T04:03:30.182Z,43.88
2019-03-16T04:03:56.240Z,43.93
2019-03-16T04:04:22.183Z,43.97
2019-03-16T04:04:48.173Z,43.96
2019-03-16T04:05:14.190Z,43.98
2019-03-16T04:05:40.171Z,43.99
2019-03-16T04:06:06.277Z,44.01
2019-03-16T04:06:32.175Z,44.02
2019-03-16T04:06:58.185Z,44
2019-03-16T04:07:24.188Z,44.05
2019-03-16T04:07:50.257Z,44.04
2019-03-16T04:08:16.241Z,44.04
2019-03-16T04:08:42.191Z,44.05
2019-03-16T04:09:08.179Z,44.05
2019-03-16T04:09:34.194Z,44.1
2019-03-16T04:10:00.179Z,44.13
2019-03-16T04:10:26.179Z,44.14
2019-03-16T04:10:52.199Z,44.14
2019-03-16T04:11:18.198Z,44.15
2019-03-16T04:11:44.202Z,44.17
2019-03-16T04:12:10.194Z,44.14
2019-03-16T04:12:36.181Z,44.16
2019-03-16T04:13:02.195Z,44.17
2019-03-16T04:13:28.181Z,44.19
2019-03-16T04:13:54.190Z,44.23
2019-03-16T04:14:20.203Z,44.23
2019-03-16T04:14:46.252Z,44.27
2019-03-16T04:15:12.204Z,44.27
2019-03-16T04:15:38.186Z,44.23
2019-03-16T04:16:04.204Z,44.28
2019-03-16T04:16:30.194Z,44.29
2019-03-16T04:16:56.191Z,44.32
2019-03-16T04:17:22.187Z,44.33
2019-03-16T04:17:48.187Z,44.35
2019-03-16T04:18:14.204Z,44.35
2019-03-16T04:18:40.204Z,44.38
2019-03-16T04:19:06.190Z,44.41
2019-03-16T04:19:32.215Z,44.38
2019-03-16T04:19:58.193Z,44.41
2019-03-16T04:20:24.212Z,44.46
2019-03-16T04:20:50.197Z,44.44
2019-03-16T04:21:16.195Z,44.47
2019-03-16T04:21:42.208Z,44.44
2019-03-16T04:22:08.209Z,44.48
2019-03-16T04:22:34.210Z,44.5
2019-03-16T04:23:00.211Z,44.48
2019-03-16T04:23:26.199Z,44.49
2019-03-16T04:23:52.197Z,44.5
2019-03-16T04:24:18.202Z,44.53
2019-03-16T04:24:44.214Z,44.56
2019-03-16T04:25:10.213Z,44.55
2019-03-16T04:25:36.203Z,44.55
2019-03-16T04:26:02.222Z,44.56
2019-03-16T04:26:28.198Z,44.6
2019-03-16T04:26:54.216Z,44.61
2019-03-16T04:27:20.205Z,44.65
2019-03-16T04:27:46.203Z,44.65
2019-03-16T04:28:12.204Z,44.67
2019-03-16T04:28:38.208Z,44.69
2019-03-16T04:29:04.227Z,44.67
2019-03-16T04:29:30.223Z,44.67
2019-03-16T04:29:56.209Z,44.67
2019-03-16T04:30:22.242Z,44.69
2019-03-16T04:30:48.215Z,44.67
2019-03-16T04:31:14.222Z,44.7
2019-03-16T04:31:40.207Z,44.71
2019-03-16T04:32:06.210Z,44.7
2019-03-16T04:32:32.226Z,44.72
2019-03-16T04:32:58.230Z,44.73
2019-03-16T04:33:24.226Z,44.75
2019-03-16T04:33:50.256Z,44.71
2019-03-16T04:34:16.215Z,44.73
2019-03-16T04:34:42.213Z,44.75
2019-03-16T04:35:08.247Z,44.75
2019-03-16T04:35:34.291Z,44.79
2019-03-16T04:36:00.230Z,44.78
2019-03-16T04:36:26.217Z,44.81
2019-03-16T04:36:52.232Z,44.82
2019-03-16T04:37:18.221Z,44.8
2019-03-16T04:37:44.232Z,44.81
2019-03-16T04:38:10.226Z,44.84
2019-03-16T04:38:36.222Z,44.88
2019-03-16T04:39:02.234Z,44.88
2019-03-16T04:39:28.232Z,44.91
2019-03-16T04:39:54.239Z,44.89
2019-03-16T04:40:20.225Z,44.94
2019-03-16T04:40:46.239Z,44.93
2019-03-16T04:41:12.218Z,44.91
2019-03-16T04:41:38.222Z,44.95
2019-03-16T04:42:04.233Z,44.97
2019-03-16T04:42:30.237Z,44.99
2019-03-16T04:42:56.295Z,44.99
2019-03-16T04:43:22.335Z,45.02
2019-03-16T04:43:48.225Z,45.03
2019-03-16T04:44:14.240Z,45.05
2019-03-16T04:44:40.229Z,45.06
2019-03-16T04:45:06.272Z,45.08
2019-03-16T04:45:32.242Z,45.08
2019-03-16T04:45:58.243Z,45.1
2019-03-16T04:46:24.246Z,45.13
2019-03-16T04:46:50.245Z,45.14
2019-03-16T04:47:16.229Z,45.14
2019-03-16T04:47:42.234Z,45.15
2019-03-16T04:48:08.243Z,45.15
2019-03-16T04:48:34.258Z,45.16
2019-03-16T04:49:00.249Z,45.17
2019-03-16T04:49:26.297Z,45.19
2019-03-16T04:49:52.251Z,45.21
2019-03-16T04:50:18.249Z,45.23
2019-03-16T04:50:44.251Z,45.23
2019-03-16T04:51:10.237Z,45.26
2019-03-16T04:51:36.262Z,45.29
2019-03-16T04:52:02.241Z,45.28
2019-03-16T04:52:28.255Z,45.29
2019-03-16T04:52:54.255Z,45.32
2019-03-16T04:53:20.260Z,45.33
2019-03-16T04:53:46.243Z,45.34
2019-03-16T04:54:12.261Z,45.34
2019-03-16T04:54:38.262Z,45.36
2019-03-16T04:55:04.240Z,45.37
2019-03-16T04:55:30.260Z,45.38
2019-03-16T04:55:56.244Z,45.39
2019-03-16T04:56:22.308Z,45.42
2019-03-16T04:56:48.249Z,45.47
2019-03-16T04:57:14.262Z,45.49
2019-03-16T04:57:40.248Z,45.49
2019-03-16T04:58:06.253Z,45.5
2019-03-16T04:58:32.266Z,45.52
2019-03-16T04:58:58.270Z,45.54
2019-03-16T04:59:24.269Z,45.58
2019-03-16T04:59:50.398Z,45.6
2019-03-16T05:00:16.249Z,45.6
2019-03-16T05:00:43.246Z,45.62
2019-03-16T05:01:08.251Z,45.63
2019-03-16T05:01:34.276Z,45.63
2019-03-16T05:02:00.268Z,45.66
2019-03-16T05:02:26.337Z,45.67
2019-03-16T05:02:52.271Z,45.68
2019-03-16T05:03:18.267Z,45.71
2019-03-16T05:03:44.271Z,45.72
2019-03-16T05:04:10.254Z,45.7
2019-03-16T05:04:36.253Z,45.75
2019-03-16T05:05:02.254Z,45.76
2019-03-16T05:05:28.257Z,45.75
2019-03-16T05:05:54.276Z,45.75
2019-03-16T05:06:20.273Z,45.79
2019-03-16T05:06:46.257Z,45.8
2019-03-16T05:07:12.277Z,45.78
2019-03-16T05:07:38.259Z,45.82
2019-03-16T05:08:04.275Z,45.83
2019-03-16T05:08:30.260Z,45.86
2019-03-16T05:08:56.272Z,45.84
2019-03-16T05:09:22.274Z,45.87
2019-03-16T05:09:48.334Z,45.91
2019-03-16T05:10:14.279Z,45.97
2019-03-16T05:10:40.280Z,46
2019-03-16T05:11:06.263Z,46.1
2019-03-16T05:11:32.279Z,46.09
2019-03-16T05:11:58.270Z,46.11
2019-03-16T05:12:24.282Z,46.13
2019-03-16T05:12:50.265Z,46.15
2019-03-16T05:13:16.268Z,46.15
2019-03-16T05:13:42.346Z,46.21
2019-03-16T05:14:08.282Z,46.32
2019-03-16T05:14:34.283Z,46.39
2019-03-16T05:15:00.271Z,46.39
2019-03-16T05:15:26.290Z,46.43
2019-03-16T05:15:52.270Z,46.44
2019-03-16T05:16:18.274Z,46.47
2019-03-16T05:16:44.288Z,46.49
2019-03-16T05:17:10.349Z,46.53
2019-03-16T05:17:36.274Z,46.56
2019-03-16T05:18:02.290Z,46.58
2019-03-16T05:18:28.272Z,46.64
2019-03-16T05:18:54.292Z,46.71
2019-03-16T05:19:20.275Z,46.72
2019-03-16T05:19:46.280Z,46.71
2019-03-16T05:20:12.282Z,46.66
2019-03-16T05:20:38.290Z,46.69
2019-03-16T05:21:04.461Z,46.73
2019-03-16T05:21:30.295Z,46.73
2019-03-16T05:21:56.285Z,46.79
2019-03-16T05:22:22.299Z,46.79
2019-03-16T05:22:48.287Z,46.81
2019-03-16T05:23:14.296Z,46.8
2019-03-16T05:23:40.292Z,46.78
2019-03-16T05:24:06.284Z,46.78
2019-03-16T05:24:32.301Z,46.79
2019-03-16T05:24:58.301Z,46.81
2019-03-16T05:25:24.298Z,46.82
2019-03-16T05:25:50.300Z,46.83
2019-03-16T05:26:16.294Z,46.82
2019-03-16T05:26:42.303Z,46.85
2019-03-16T05:27:08.288Z,46.83
2019-03-16T05:27:34.323Z,46.86
2019-03-16T05:28:00.597Z,46.92
2019-03-16T05:28:26.288Z,46.93
2019-03-16T05:28:52.303Z,46.96
2019-03-16T05:29:18.293Z,46.97
2019-03-16T05:29:44.348Z,46.98
2019-03-16T05:30:10.291Z,46.98
2019-03-16T05:30:36.301Z,47.01
2019-03-16T05:31:02.306Z,46.99
2019-03-16T05:31:28.373Z,47.01
2019-03-16T05:31:54.313Z,47.02
2019-03-16T05:32:20.309Z,47.03
2019-03-16T05:32:46.296Z,47.08
2019-03-16T05:33:12.308Z,47.13
2019-03-16T05:33:38.293Z,47.09
2019-03-16T05:34:04.298Z,47.07
2019-03-16T05:34:30.316Z,47.08
2019-03-16T05:34:56.366Z,47.07
2019-03-16T05:35:22.317Z,47.1
2019-03-16T05:35:48.306Z,47.08
2019-03-16T05:36:14.315Z,47.12
2019-03-16T05:36:40.299Z,47.1